createdAt,value
2023-04-19T00:01:27.159Z,318.74
2023-04-19T00:04:38.509Z,313.12
2023-04-19T00:07:47.456Z,285.88
2023-04-19T00:10:59.209Z,276.34
2023-04-19T00:14:11.238Z,276.79
2023-04-19T00:17:18.395Z,278.14
2023-04-19T00:20:27.564Z,273.13
2023-04-19T00:23:34.531Z,276.80
2023-04-19T00:26:40.438Z,286.50
2023-04-19T00:29:47.289Z,274.26
2023-04-19T00:32:53.264Z,265.07
2023-04-19T00:36:03.028Z,261.26
2023-04-19T00:39:09.061Z,256.10
2023-04-19T00:42:24.352Z,255.62
2023-04-19T00:45:38.900Z,258.96
2023-04-19T00:48:46.026Z,261.06
2023-04-19T00:51:55.252Z,256.78
2023-04-19T00:55:02.857Z,254.84
2023-04-19T00:58:09.576Z,254.45
2023-04-19T01:01:19.887Z,247.51
2023-04-19T01:04:28.188Z,255.90
2023-04-19T01:07:38.263Z,267.22
2023-04-19T01:10:44.587Z,249.16
2023-04-19T01:13:51.404Z,257.64
2023-04-19T01:17:01.062Z,257.60
2023-04-19T01:20:11.130Z,252.66
2023-04-19T01:23:19.650Z,240.56
2023-04-19T01:26:27.672Z,224.79
2023-04-19T01:29:35.222Z,222.35
2023-04-19T01:32:42.001Z,209.78
2023-04-19T01:35:47.970Z,204.22
2023-04-19T01:38:57.387Z,204.27
2023-04-19T01:42:04.622Z,201.72
2023-04-19T01:45:13.320Z,199.16
2023-04-19T01:48:19.268Z,201.58
2023-04-19T01:51:31.617Z,201.58
2023-04-19T01:54:44.341Z,198.82
2023-04-19T01:57:53.350Z,206.93
2023-04-19T02:01:06.834Z,209.00
2023-04-19T02:04:16.907Z,213.96
2023-04-19T02:07:25.801Z,210.88
2023-04-19T02:10:34.651Z,205.75
2023-04-19T02:13:41.490Z,193.16
2023-04-19T02:16:50.761Z,187.64
2023-04-19T02:19:58.025Z,184.32
2023-04-19T02:23:09.027Z,207.03
2023-04-19T02:26:18.523Z,226.97
2023-04-19T02:29:24.422Z,241.64
2023-04-19T02:32:32.229Z,233.75
2023-04-19T02:35:38.335Z,214.79
2023-04-19T02:38:45.140Z,203.48
2023-04-19T02:42:05.370Z,195.42
2023-04-19T02:45:30.885Z,192.74
2023-04-19T02:48:36.749Z,202.28
2023-04-19T02:51:43.494Z,190.54
2023-04-19T02:54:53.745Z,178.71
2023-04-19T02:58:03.604Z,160.96
2023-04-19T03:01:10.256Z,162.85
2023-04-19T03:04:17.579Z,152.64
2023-04-19T03:07:34.067Z,158.96
2023-04-19T03:10:41.043Z,155.45
2023-04-19T03:13:50.964Z,152.73
2023-04-19T03:16:57.823Z,154.52
2023-04-19T03:20:13.550Z,153.85
2023-04-19T03:23:20.722Z,155.31
2023-04-19T03:26:28.995Z,156.54
2023-04-19T03:29:39.944Z,166.25
2023-04-19T03:32:55.379Z,171.07
2023-04-19T03:36:06.723Z,170.14
2023-04-19T03:39:13.830Z,167.06
2023-04-19T03:42:23.175Z,165.29
2023-04-19T03:46:06.802Z,161.68
2023-04-19T03:49:16.415Z,165.78
2023-04-19T03:52:26.155Z,179.93
2023-04-19T03:55:33.130Z,192.12
2023-04-19T03:58:54.833Z,216.11
2023-04-19T04:02:05.447Z,249.89
2023-04-19T04:05:12.993Z,261.22
2023-04-19T04:08:21.090Z,262.23
2023-04-19T04:11:27.009Z,260.33
2023-04-19T04:14:43.202Z,233.84
2023-04-19T04:17:56.771Z,202.94
2023-04-19T04:21:05.911Z,192.85
2023-04-19T04:24:14.540Z,187.60
2023-04-19T04:27:32.285Z,168.26
2023-04-19T04:30:38.935Z,156.35
2023-04-19T04:33:50.283Z,151.20
2023-04-19T04:36:59.025Z,145.95
2023-04-19T04:40:08.172Z,147.12
2023-04-19T04:43:14.499Z,152.04
2023-04-19T04:46:31.555Z,153.52
2023-04-19T04:49:40.378Z,150.29
2023-04-19T04:52:47.749Z,152.86
2023-04-19T04:56:10.423Z,174.92
2023-04-19T04:59:17.152Z,218.24
2023-04-19T05:02:27.324Z,241.93
2023-04-19T05:05:37.631Z,253.69
2023-04-19T05:08:43.586Z,285.78
2023-04-19T05:12:06.925Z,275.40
2023-04-19T05:15:14.145Z,255.91
2023-04-19T05:18:27.561Z,234.90
2023-04-19T05:21:37.516Z,233.63
2023-04-19T05:24:46.171Z,191.35
2023-04-19T05:27:59.786Z,165.26
2023-04-19T05:31:13.143Z,157.35
2023-04-19T05:34:30.653Z,160.41
2023-04-19T05:37:42.455Z,165.96
2023-04-19T05:40:54.409Z,157.29
2023-04-19T05:44:05.351Z,160.79
2023-04-19T05:47:11.992Z,153.18
2023-04-19T05:50:39.902Z,157.23
2023-04-19T05:54:16.083Z,155.40
2023-04-19T05:57:26.435Z,159.12
2023-04-19T06:00:32.887Z,159.33
2023-04-19T06:03:57.786Z,157.31
2023-04-19T06:07:21.719Z,154.84
2023-04-19T06:10:52.667Z,158.80
2023-04-19T06:14:01.918Z,152.83
2023-04-19T06:17:09.121Z,148.26
2023-04-19T06:20:16.036Z,154.13
2023-04-19T06:23:23.834Z,167.31
2023-04-19T06:26:39.380Z,173.37
2023-04-19T06:29:51.209Z,137.84
2023-04-19T06:32:57.534Z,96.66
2023-04-19T06:36:04.312Z,54.92
2023-04-19T06:39:11.080Z,52.65
2023-04-19T06:42:21.308Z,47.01
2023-04-19T06:45:27.483Z,40.35
2023-04-19T06:48:34.517Z,40.22
2023-04-19T06:51:43.213Z,34.44
2023-04-19T06:54:52.224Z,32.87
2023-04-19T06:58:11.343Z,32.27
2023-04-19T07:01:19.383Z,36.63
2023-04-19T07:04:25.476Z,43.93
2023-04-19T07:07:33.571Z,63.89
2023-04-19T07:10:39.616Z,60.28
2023-04-19T07:13:49.044Z,53.84
2023-04-19T07:16:56.865Z,42.22
2023-04-19T07:20:04.350Z,42.27
2023-04-19T07:23:10.775Z,40.93
2023-04-19T07:26:18.334Z,45.35
2023-04-19T07:29:26.853Z,50.00
2023-04-19T07:32:34.730Z,46.50
2023-04-19T07:35:42.828Z,43.38
2023-04-19T07:38:49.582Z,45.60
2023-04-19T07:41:55.537Z,50.00
2023-04-19T07:45:10.102Z,48.86
2023-04-19T07:48:16.517Z,51.26
2023-04-19T07:51:24.955Z,48.91
2023-04-19T07:54:31.756Z,48.44
2023-04-19T07:57:38.619Z,55.91
2023-04-19T08:00:47.142Z,55.85
2023-04-19T08:03:54.225Z,57.94
2023-04-19T08:07:00.403Z,62.23
2023-04-19T08:10:08.526Z,69.49
2023-04-19T08:13:14.832Z,74.80
2023-04-19T08:17:09.032Z,73.44
2023-04-19T08:19:53.331Z,58.68
2023-04-19T08:23:04.652Z,63.60
2023-04-19T08:26:17.011Z,57.02
2023-04-19T08:29:24.032Z,60.34
2023-04-19T08:32:32.556Z,86.02
2023-04-19T08:35:39.349Z,97.26
2023-04-19T08:38:49.193Z,84.51
2023-04-19T08:42:18.119Z,64.22
2023-04-19T08:45:36.095Z,46.42
2023-04-19T08:48:47.937Z,37.97
2023-04-19T08:51:58.123Z,38.51
2023-04-19T08:55:07.383Z,49.37
2023-04-19T08:58:23.435Z,54.77
2023-04-19T09:01:41.517Z,54.41
2023-04-19T09:04:51.809Z,56.45
2023-04-19T09:08:25.284Z,64.76
2023-04-19T09:11:41.611Z,72.43
2023-04-19T09:15:01.108Z,71.93
2023-04-19T09:18:11.173Z,66.65
2023-04-19T09:21:32.200Z,69.33
2023-04-19T09:27:53.625Z,66.05
2023-04-19T09:31:10.946Z,54.37
2023-04-19T09:34:29.090Z,53.13
2023-04-19T09:41:10.957Z,59.02
2023-04-19T09:47:30.374Z,66.73
2023-04-19T09:50:51.369Z,128.89
2023-04-19T09:54:06.857Z,189.66
2023-04-19T09:57:13.233Z,202.82
2023-04-19T10:00:21.932Z,166.59
2023-04-19T10:03:34.266Z,154.09
2023-04-19T10:07:06.949Z,158.68
2023-04-19T10:10:20.475Z,143.95
2023-04-19T10:13:29.630Z,154.94
2023-04-19T10:16:37.035Z,147.04
2023-04-19T10:19:51.811Z,151.05
2023-04-19T10:22:58.425Z,140.83
2023-04-19T10:26:08.220Z,142.35
2023-04-19T10:29:16.670Z,153.01
2023-04-19T10:32:24.784Z,156.72
2023-04-19T10:35:38.284Z,166.72
2023-04-19T10:38:48.798Z,172.09
2023-04-19T10:42:03.276Z,165.56
2023-04-19T10:45:37.632Z,165.78
2023-04-19T10:48:56.911Z,171.09
2023-04-19T10:52:03.787Z,177.58
2023-04-19T10:55:10.728Z,215.68
2023-04-19T10:58:20.122Z,221.88
2023-04-19T11:01:40.573Z,202.53
2023-04-19T11:05:06.401Z,179.46
2023-04-19T11:08:12.776Z,215.06
2023-04-19T11:11:20.110Z,193.27
2023-04-19T11:14:30.577Z,198.01
2023-04-19T11:17:38.909Z,207.79
2023-04-19T11:20:46.708Z,203.63
2023-04-19T11:24:09.361Z,240.74
2023-04-19T11:27:15.320Z,258.28
2023-04-19T11:30:31.741Z,262.05
2023-04-19T11:33:39.180Z,218.45
2023-04-19T11:36:54.368Z,229.13
2023-04-19T11:40:01.562Z,285.64
2023-04-19T11:43:09.509Z,200.34
2023-04-19T11:46:18.484Z,214.17
2023-04-19T11:49:30.643Z,221.62
2023-04-19T11:52:39.328Z,222.70
2023-04-19T11:55:48.898Z,228.92
2023-04-19T11:58:54.830Z,235.02
2023-04-19T12:02:12.848Z,236.91
2023-04-19T12:05:20.150Z,259.43
2023-04-19T12:08:39.385Z,248.54
2023-04-19T12:11:50.509Z,266.45
2023-04-19T12:14:57.328Z,260.34
2023-04-19T12:18:06.452Z,270.32
2023-04-19T12:21:14.405Z,262.47
2023-04-19T12:24:20.628Z,256.82
2023-04-19T12:27:27.688Z,266.01
2023-04-19T12:30:35.613Z,254.00
2023-04-19T12:33:45.066Z,287.67
2023-04-19T12:36:51.135Z,287.08
2023-04-19T12:39:57.886Z,327.71
2023-04-19T12:43:03.901Z,342.78
2023-04-19T12:46:10.721Z,346.35
2023-04-19T12:49:22.502Z,293.99
2023-04-19T12:52:29.364Z,339.92
2023-04-19T12:55:35.672Z,289.85
2023-04-19T12:58:42.835Z,299.18
2023-04-19T13:01:48.976Z,306.40
2023-04-19T13:04:58.493Z,293.94
2023-04-19T13:08:04.576Z,244.33
2023-04-19T13:11:11.306Z,295.98
2023-04-19T13:14:17.608Z,340.58
2023-04-19T13:17:26.628Z,272.76
2023-04-19T13:20:35.289Z,280.37
2023-04-19T13:23:42.121Z,295.48
2023-04-19T13:26:49.044Z,237.45
2023-04-19T13:29:58.006Z,241.11
2023-04-19T13:33:04.249Z,272.73
2023-04-19T13:36:14.586Z,369.34
2023-04-19T13:39:20.598Z,271.73
2023-04-19T13:42:29.033Z,328.06
2023-04-19T13:45:36.425Z,214.17
2023-04-19T13:48:43.509Z,304.96
2023-04-19T13:51:52.366Z,276.59
2023-04-19T13:54:59.115Z,231.98
2023-04-19T13:58:06.571Z,194.72
2023-04-19T14:01:13.891Z,224.39
2023-04-19T14:04:20.206Z,233.22
2023-04-19T14:07:29.906Z,254.86
2023-04-19T14:10:36.406Z,220.22
2023-04-19T14:13:45.726Z,250.11
2023-04-19T14:16:51.713Z,224.17
2023-04-19T14:20:02.218Z,216.46
2023-04-19T14:23:11.702Z,246.91
2023-04-19T14:26:19.091Z,228.47
2023-04-19T14:29:25.182Z,220.35
2023-04-19T14:32:32.451Z,211.44
2023-04-19T14:35:47.223Z,217.87
2023-04-19T14:38:56.640Z,233.69
2023-04-19T14:42:08.596Z,238.86
2023-04-19T14:45:31.167Z,234.75
2023-04-19T14:48:37.266Z,242.81
2023-04-19T14:51:44.084Z,252.93
2023-04-19T14:54:52.620Z,253.63
2023-04-19T14:57:59.407Z,271.03
2023-04-19T15:01:15.188Z,277.32
2023-04-19T15:04:22.530Z,257.83
2023-04-19T15:07:29.321Z,263.37
2023-04-19T15:10:39.901Z,268.92
2023-04-19T15:13:45.802Z,266.96
2023-04-19T15:16:52.578Z,273.33
2023-04-19T15:19:58.922Z,279.81
2023-04-19T15:23:09.147Z,291.42
2023-04-19T15:26:17.766Z,291.46
2023-04-19T15:29:24.719Z,294.56
2023-04-19T15:32:34.598Z,302.96
2023-04-19T15:35:41.629Z,310.86
2023-04-19T15:38:47.680Z,306.33
2023-04-19T15:41:59.558Z,312.53
2023-04-19T15:45:05.632Z,350.01
2023-04-19T15:48:12.637Z,329.28
2023-04-19T15:51:19.031Z,323.57
2023-04-19T15:54:25.930Z,313.16
2023-04-19T15:57:34.773Z,320.50
2023-04-19T16:00:41.605Z,330.01
2023-04-19T16:03:48.342Z,330.59
2023-04-19T16:06:55.717Z,339.74
2023-04-19T16:10:10.679Z,356.60
2023-04-19T16:13:20.994Z,332.26
2023-04-19T16:16:27.335Z,343.57
2023-04-19T16:19:34.136Z,333.49
2023-04-19T16:22:40.265Z,357.33
2023-04-19T16:25:47.162Z,366.33
2023-04-19T16:29:18.807Z,372.27
2023-04-19T16:32:26.313Z,347.59
2023-04-19T16:35:32.788Z,364.09
2023-04-19T16:38:39.729Z,326.14
2023-04-19T16:41:45.683Z,339.78
2023-04-19T16:44:55.157Z,413.86
2023-04-19T16:48:05.081Z,372.36
2023-04-19T16:51:11.952Z,356.02
2023-04-19T16:54:18.166Z,339.47
2023-04-19T16:57:26.385Z,332.12
2023-04-19T17:00:35.449Z,339.25
2023-04-19T17:03:42.468Z,335.57
2023-04-19T17:06:49.181Z,378.10
2023-04-19T17:09:56.174Z,389.69
2023-04-19T17:13:07.934Z,378.31
2023-04-19T17:16:17.664Z,379.94
2023-04-19T17:19:23.998Z,321.60
2023-04-19T17:22:31.033Z,337.84
2023-04-19T17:25:36.997Z,338.91
2023-04-19T17:28:44.701Z,364.48
2023-04-19T17:32:03.464Z,384.02
2023-04-19T17:35:16.132Z,376.28
2023-04-19T17:38:22.622Z,378.75
2023-04-19T17:41:29.383Z,353.92
2023-04-19T17:44:35.344Z,342.37
2023-04-19T17:47:46.934Z,356.94
2023-04-19T17:50:56.487Z,379.57
2023-04-19T17:54:03.381Z,370.18
2023-04-19T17:57:09.622Z,374.36
2023-04-19T18:00:18.261Z,385.34
2023-04-19T18:03:26.929Z,366.82
2023-04-19T18:06:33.848Z,374.36
2023-04-19T18:09:48.960Z,395.52
2023-04-19T18:12:56.156Z,369.83
2023-04-19T18:16:03.749Z,361.46
2023-04-19T18:19:13.206Z,365.32
2023-04-19T18:22:39.712Z,360.96
2023-04-19T18:25:59.494Z,369.37
2023-04-19T18:29:05.566Z,369.63
2023-04-19T18:32:12.491Z,370.36
2023-04-19T18:35:22.211Z,366.55
2023-04-19T18:38:29.251Z,374.24
2023-04-19T18:41:35.858Z,363.67
2023-04-19T18:44:53.916Z,388.68
2023-04-19T18:48:01.010Z,382.20
2023-04-19T18:51:16.019Z,403.46
2023-04-19T18:54:22.424Z,380.75
2023-04-19T18:57:30.629Z,374.03
2023-04-19T19:00:40.062Z,383.36
2023-04-19T19:04:12.769Z,389.14
2023-04-19T19:07:34.927Z,406.50
2023-04-19T19:13:51.856Z,414.62
2023-04-19T19:16:58.899Z,407.63
2023-04-19T19:20:05.341Z,407.76
2023-04-19T19:23:15.903Z,425.61
2023-04-19T19:26:35.565Z,423.90
2023-04-19T19:29:46.392Z,410.85
2023-04-19T19:32:57.978Z,388.59
2023-04-19T19:36:05.373Z,374.43
2023-04-19T19:39:14.209Z,389.50
2023-04-19T19:42:21.917Z,389.92
2023-04-19T19:45:33.137Z,377.96
2023-04-19T19:48:42.503Z,415.88
2023-04-19T19:51:58.496Z,445.58
2023-04-19T19:55:12.689Z,447.51
2023-04-19T20:01:33.548Z,425.85
2023-04-19T20:04:39.863Z,410.21
2023-04-19T20:08:01.266Z,403.54
2023-04-19T20:11:11.765Z,422.31
2023-04-19T20:14:18.554Z,440.56
2023-04-19T20:17:24.489Z,450.95
2023-04-19T20:20:31.803Z,435.71
2023-04-19T20:23:41.079Z,428.12
2023-04-19T20:26:50.835Z,428.61
2023-04-19T20:29:56.880Z,411.21
2023-04-19T20:33:04.263Z,405.36
2023-04-19T20:36:10.289Z,409.17
2023-04-19T20:39:19.291Z,432.78
2023-04-19T20:42:31.213Z,447.66
2023-04-19T20:45:37.912Z,428.19
2023-04-19T20:48:43.930Z,424.48
2023-04-19T20:51:51.969Z,412.35
2023-04-19T20:55:03.561Z,415.09
2023-04-19T20:58:15.108Z,431.30
2023-04-19T21:01:23.176Z,435.13
2023-04-19T21:04:31.342Z,445.05
2023-04-19T21:07:37.373Z,449.06
2023-04-19T21:10:44.062Z,455.13
2023-04-19T21:13:52.861Z,448.60
2023-04-19T21:16:59.839Z,443.01
2023-04-19T21:20:12.317Z,437.87
2023-04-19T21:23:19.323Z,429.33
2023-04-19T21:26:43.728Z,430.37
2023-04-19T21:30:01.211Z,426.60
2023-04-19T21:33:10.704Z,424.91
2023-04-19T21:36:17.523Z,428.77
2023-04-19T21:39:23.380Z,423.84
2023-04-19T21:42:30.225Z,411.66
2023-04-19T21:45:38.800Z,416.94
2023-04-19T21:48:49.222Z,413.52
2023-04-19T21:51:57.115Z,414.60
2023-04-19T21:55:04.022Z,408.73
2023-04-19T21:58:14.092Z,416.09
2023-04-19T22:01:23.615Z,403.04
2023-04-19T22:04:31.384Z,389.48
2023-04-19T22:07:38.946Z,383.95
2023-04-19T22:10:45.110Z,377.23
2023-04-19T22:13:52.033Z,361.59
2023-04-19T22:17:03.680Z,342.78
2023-04-19T22:20:13.106Z,344.22
2023-04-19T22:23:24.147Z,340.51
2023-04-19T22:26:31.107Z,342.59
2023-04-19T22:29:37.439Z,338.99
2023-04-19T22:32:46.943Z,347.19
2023-04-19T22:35:52.866Z,347.45
2023-04-19T22:38:59.728Z,344.74
2023-04-19T22:42:05.636Z,352.10
2023-04-19T22:45:13.948Z,358.79
2023-04-19T22:48:22.775Z,365.04
2023-04-19T22:51:29.714Z,362.42
2023-04-19T22:54:35.602Z,347.18
2023-04-19T22:57:43.328Z,335.04
2023-04-19T23:00:49.398Z,321.85
2023-04-19T23:03:58.833Z,325.88
2023-04-19T23:07:05.076Z,320.70
2023-04-19T23:10:13.619Z,322.88
2023-04-19T23:13:19.674Z,320.82
2023-04-19T23:16:29.104Z,335.51
2023-04-19T23:19:39.088Z,337.31
2023-04-19T23:22:46.218Z,332.54
2023-04-19T23:25:52.210Z,321.88
2023-04-19T23:28:59.285Z,319.50
2023-04-19T23:32:05.265Z,318.48
2023-04-19T23:35:20.651Z,321.25
2023-04-19T23:38:26.625Z,331.26
2023-04-19T23:41:33.375Z,338.72
2023-04-19T23:44:42.694Z,348.04
2023-04-19T23:47:50.725Z,365.43
2023-04-19T23:50:59.383Z,368.59
2023-04-19T23:54:06.106Z,379.11
2023-04-19T23:57:12.079Z,380.98
